createdAt,value
2022-11-30T17:36:29.479Z,91.07
2022-11-30T17:39:16.179Z,95.70
2022-11-30T17:42:03.006Z,82.20
2022-11-30T17:44:50.166Z,98.40
2022-11-30T17:47:37.667Z,99.13
2022-11-30T17:50:24.296Z,95.17
2022-11-30T17:53:17.823Z,100.43
2022-11-30T17:56:06.364Z,88.27
2022-11-30T17:58:53.052Z,89.07
2022-11-30T18:01:40.418Z,96.13
2022-11-30T18:04:27.053Z,95.53
2022-11-30T18:07:13.707Z,100.10
2022-11-30T18:10:01.920Z,107.17
2022-11-30T18:12:48.699Z,107.37
2022-11-30T18:15:35.305Z,92.57
2022-11-30T18:18:22.007Z,93.73
2022-11-30T18:21:11.912Z,91.93
2022-11-30T18:23:59.510Z,109.10
2022-11-30T18:26:47.292Z,108.50
2022-11-30T18:29:34.117Z,94.63
2022-11-30T18:32:21.018Z,103.83
2022-11-30T18:35:08.860Z,96.17
2022-11-30T18:37:55.280Z,97.83
2022-11-30T18:40:42.209Z,86.77
2022-11-30T18:43:30.737Z,99.33
2022-11-30T18:46:17.202Z,91.97
2022-11-30T18:49:03.966Z,85.93
2022-11-30T18:51:50.798Z,103.60
2022-11-30T18:54:37.526Z,87.30
2022-11-30T18:57:24.252Z,97.07
2022-11-30T19:00:13.525Z,106.13
2022-11-30T19:03:00.263Z,93.97
2022-11-30T19:05:46.780Z,101.70
2022-11-30T19:08:33.645Z,86.20
2022-11-30T19:11:20.692Z,99.20
2022-11-30T19:14:08.188Z,83.10
2022-11-30T19:16:56.242Z,103.30
2022-11-30T19:19:42.776Z,98.73
2022-11-30T19:22:31.214Z,97.70
2022-11-30T19:25:19.222Z,109.23
2022-11-30T19:28:06.304Z,93.40
2022-11-30T19:30:53.259Z,95.47
2022-11-30T19:33:42.866Z,104.67
2022-11-30T19:36:33.087Z,91.43
2022-11-30T19:39:19.698Z,85.33
2022-11-30T19:42:07.617Z,85.60
2022-11-30T19:44:58.054Z,85.63
2022-11-30T19:47:45.776Z,86.80
2022-11-30T19:50:35.190Z,82.73
2022-11-30T19:53:22.398Z,82.03
2022-11-30T19:56:11.425Z,80.03
2022-11-30T19:59:04.457Z,84.43
2022-11-30T20:01:52.620Z,79.23
2022-11-30T20:04:39.357Z,80.27
2022-11-30T20:07:27.714Z,69.93
2022-11-30T20:10:14.608Z,75.37
2022-11-30T20:13:01.014Z,86.37
2022-11-30T20:15:52.435Z,84.93
2022-11-30T20:18:45.521Z,84.77
2022-11-30T20:21:34.832Z,92.20
2022-11-30T20:24:22.873Z,80.33
2022-11-30T20:27:09.730Z,77.37
2022-11-30T20:29:56.661Z,80.23
2022-11-30T20:32:45.301Z,88.40
2022-11-30T20:35:31.956Z,77.63
2022-11-30T20:38:18.892Z,83.03
2022-11-30T20:41:11.183Z,85.90
2022-11-30T20:43:58.656Z,82.63
2022-11-30T20:46:45.691Z,96.87
2022-11-30T20:49:34.668Z,74.03
2022-11-30T20:52:21.525Z,100.43
2022-11-30T20:55:08.633Z,84.93
2022-11-30T20:57:56.638Z,103.80
2022-11-30T21:00:43.241Z,97.93
2022-11-30T21:03:29.865Z,103.93
2022-11-30T21:06:17.208Z,119.43
2022-11-30T21:09:05.158Z,102.87
2022-11-30T21:11:51.631Z,106.57
2022-11-30T21:14:40.055Z,106.60
2022-11-30T21:17:34.027Z,110.90
2022-11-30T21:20:21.904Z,87.83
2022-11-30T21:23:08.859Z,97.07
2022-11-30T21:25:55.683Z,92.20
2022-11-30T21:28:49.079Z,83.23
2022-11-30T21:31:39.128Z,76.03
2022-11-30T21:34:26.581Z,81.10
2022-11-30T21:37:13.355Z,79.37
2022-11-30T21:40:00.184Z,78.90
2022-11-30T21:42:46.816Z,83.90
2022-11-30T21:45:33.687Z,74.70
2022-11-30T21:48:21.753Z,88.50
2022-11-30T21:51:10.282Z,92.67
2022-11-30T21:53:59.483Z,84.17
2022-11-30T21:56:46.329Z,74.53
2022-11-30T21:59:33.719Z,69.67
2022-11-30T22:02:21.214Z,72.10
2022-11-30T22:05:10.012Z,72.07
2022-11-30T22:07:56.825Z,79.37
2022-11-30T22:10:43.810Z,71.70
2022-11-30T22:13:30.847Z,75.77
2022-11-30T22:16:18.483Z,76.00
2022-11-30T22:19:06.231Z,72.20
2022-11-30T22:21:54.495Z,66.63
2022-11-30T22:24:41.125Z,78.17
2022-11-30T22:27:27.855Z,66.23
2022-11-30T22:30:15.142Z,67.63
2022-11-30T22:33:01.790Z,67.40
2022-11-30T22:35:48.677Z,64.83
2022-11-30T22:38:36.780Z,73.67
2022-11-30T22:41:24.045Z,74.03
2022-11-30T22:44:13.716Z,83.07
2022-11-30T22:47:00.321Z,70.23
2022-11-30T22:49:47.412Z,74.07
2022-11-30T22:53:01.571Z,77.70
2022-11-30T22:55:47.841Z,77.10
2022-11-30T22:58:35.560Z,60.33
2022-11-30T23:01:24.745Z,74.23
2022-11-30T23:04:14.226Z,74.67
2022-11-30T23:07:00.791Z,82.33
2022-11-30T23:09:47.913Z,72.40
2022-11-30T23:12:58.616Z,68.87
2022-11-30T23:15:42.693Z,86.33
2022-11-30T23:18:31.289Z,64.93
2022-11-30T23:21:20.563Z,71.87
2022-11-30T23:24:09.004Z,81.20
2022-11-30T23:26:55.737Z,76.90
2022-11-30T23:29:44.097Z,78.07
2022-11-30T23:32:36.024Z,75.40
2022-11-30T23:35:24.279Z,71.13
2022-11-30T23:38:12.452Z,87.87
2022-11-30T23:41:04.011Z,72.70
2022-11-30T23:43:50.840Z,79.73
2022-11-30T23:46:39.298Z,69.50
2022-11-30T23:49:26.201Z,75.77
2022-11-30T23:52:12.966Z,78.63
2022-11-30T23:54:59.526Z,77.63
2022-11-30T23:57:46.888Z,79.00
